createdAt,value
2019-05-20T00:00:09.182Z,16.90
2019-05-20T00:02:41.672Z,16.80
2019-05-20T00:05:14.490Z,16.80
2019-05-20T00:07:46.944Z,16.80
2019-05-20T00:10:19.790Z,16.70
2019-05-20T00:12:52.078Z,16.60
2019-05-20T00:15:24.650Z,16.60
2019-05-20T00:17:56.984Z,16.50
2019-05-20T00:20:29.524Z,16.50
2019-05-20T00:23:01.853Z,16.50
2019-05-20T00:25:34.210Z,16.50
2019-05-20T00:28:06.813Z,16.60
2019-05-20T00:30:39.190Z,16.70
2019-05-20T00:33:11.596Z,16.80
2019-05-20T00:35:44.155Z,16.90
2019-05-20T00:38:16.799Z,17.00
2019-05-20T00:40:49.282Z,17.10
2019-05-20T00:43:22.028Z,17.10
2019-05-20T00:45:54.518Z,17.20
2019-05-20T00:48:26.802Z,17.30
2019-05-20T00:50:59.180Z,17.30
2019-05-20T00:53:31.397Z,17.40
2019-05-20T00:56:03.989Z,17.40
2019-05-20T00:58:36.289Z,17.40
2019-05-20T01:01:08.646Z,17.40
2019-05-20T01:03:40.763Z,17.50
2019-05-20T01:06:12.893Z,17.50
2019-05-20T01:08:44.943Z,17.50
2019-05-20T01:11:17.011Z,17.50
2019-05-20T01:13:49.082Z,17.50
2019-05-20T01:16:21.166Z,17.50
2019-05-20T01:18:53.450Z,17.50
2019-05-20T01:21:25.591Z,17.40
2019-05-20T01:23:57.791Z,17.40
2019-05-20T01:26:29.936Z,17.30
2019-05-20T01:29:02.711Z,17.30
2019-05-20T01:31:34.851Z,17.20
2019-05-20T01:34:07.222Z,17.10
2019-05-20T01:36:39.213Z,16.90
2019-05-20T01:39:11.652Z,16.80
2019-05-20T01:41:43.951Z,16.60
2019-05-20T01:44:16.233Z,16.40
2019-05-20T01:46:48.526Z,16.30
2019-05-20T01:49:20.737Z,16.20
2019-05-20T01:51:52.835Z,16.00
2019-05-20T01:54:24.905Z,15.90
2019-05-20T01:56:57.001Z,15.80
2019-05-20T01:59:29.168Z,15.80
2019-05-20T02:02:01.280Z,15.70
2019-05-20T02:04:33.624Z,15.50
2019-05-20T02:07:05.604Z,15.50
2019-05-20T02:09:37.668Z,15.40
2019-05-20T02:12:09.938Z,15.40
2019-05-20T02:14:48.141Z,15.30
2019-05-20T02:17:20.225Z,15.30
2019-05-20T02:19:52.510Z,15.20
2019-05-20T02:22:24.598Z,15.10
2019-05-20T02:24:56.881Z,15.10
2019-05-20T02:27:29.166Z,15.00
2019-05-20T02:30:01.283Z,15.00
2019-05-20T02:32:33.596Z,15.00
2019-05-20T02:35:05.616Z,14.90
2019-05-20T02:37:37.655Z,14.80
2019-05-20T02:40:10.283Z,14.70
2019-05-20T02:42:42.400Z,14.70
2019-05-20T02:45:14.485Z,14.70
2019-05-20T02:47:46.571Z,14.70
2019-05-20T02:50:18.891Z,14.60
2019-05-20T02:52:50.996Z,14.60
2019-05-20T02:55:23.123Z,14.60
2019-05-20T02:57:55.293Z,14.60
2019-05-20T03:00:27.537Z,14.50
2019-05-20T03:02:59.710Z,14.50
2019-05-20T03:05:32.250Z,14.40
2019-05-20T03:08:04.624Z,14.40
2019-05-20T03:10:36.856Z,14.40
2019-05-20T03:13:09.110Z,14.40
2019-05-20T03:15:41.684Z,14.40
2019-05-20T03:18:13.777Z,14.30
2019-05-20T03:20:46.178Z,14.30
2019-05-20T03:23:18.275Z,14.30
2019-05-20T03:25:50.525Z,14.20
2019-05-20T03:28:22.586Z,14.30
2019-05-20T03:30:54.915Z,14.30
2019-05-20T03:33:27.025Z,14.20
2019-05-20T03:35:59.739Z,14.20
2019-05-20T03:38:32.093Z,14.10
2019-05-20T03:41:04.424Z,14.10
2019-05-20T03:43:36.674Z,14.00
2019-05-20T03:46:09.002Z,14.00
2019-05-20T03:48:41.167Z,14.10
2019-05-20T03:51:13.754Z,14.10
2019-05-20T03:53:45.799Z,14.10
2019-05-20T03:56:18.391Z,14.10
2019-05-20T03:58:50.916Z,14.20
2019-05-20T04:01:23.175Z,14.20
2019-05-20T04:03:55.440Z,14.20
2019-05-20T04:06:27.705Z,14.30
2019-05-20T04:08:59.968Z,14.40
2019-05-20T04:11:32.580Z,14.40
2019-05-20T04:14:05.020Z,14.50
2019-05-20T04:16:37.363Z,14.60
2019-05-20T04:19:09.854Z,14.60
2019-05-20T04:21:42.059Z,14.60
2019-05-20T04:24:14.642Z,14.60
2019-05-20T04:26:47.486Z,14.70
2019-05-20T04:29:19.624Z,14.80
2019-05-20T04:31:52.022Z,14.90
2019-05-20T04:34:24.152Z,15.00
2019-05-20T04:36:56.333Z,15.10
2019-05-20T04:39:28.553Z,15.20
2019-05-20T04:42:00.817Z,15.30
2019-05-20T04:44:33.566Z,15.30
2019-05-20T04:47:05.647Z,15.30
2019-05-20T04:49:37.916Z,15.40
2019-05-20T04:52:10.254Z,15.40
2019-05-20T04:54:42.566Z,15.40
2019-05-20T04:57:15.034Z,15.50
2019-05-20T04:59:47.425Z,15.50
2019-05-20T05:02:19.797Z,15.60
2019-05-20T05:04:52.264Z,15.60
2019-05-20T05:07:24.668Z,15.60
2019-05-20T05:09:57.276Z,15.70
2019-05-20T05:12:29.775Z,15.80
2019-05-20T05:15:02.102Z,15.80
2019-05-20T05:17:35.370Z,15.90
2019-05-20T05:20:16.802Z,15.90
2019-05-20T05:22:42.015Z,16.00
2019-05-20T05:25:14.562Z,16.00
2019-05-20T05:27:46.915Z,16.10
2019-05-20T05:30:19.536Z,16.20
2019-05-20T05:32:51.949Z,16.20
2019-05-20T05:35:24.567Z,16.30
2019-05-20T05:37:56.996Z,16.40
2019-05-20T05:40:33.088Z,16.50
2019-05-20T05:43:05.341Z,16.60
2019-05-20T05:45:37.706Z,16.70
2019-05-20T05:48:09.967Z,16.80
2019-05-20T05:50:42.146Z,17.00
2019-05-20T05:53:14.180Z,17.10
2019-05-20T05:55:46.408Z,17.20
2019-05-20T05:58:18.688Z,17.30
2019-05-20T06:00:51.048Z,17.40
2019-05-20T06:03:23.329Z,17.50
2019-05-20T06:06:10.705Z,17.70
2019-05-20T06:08:29.394Z,17.90
2019-05-20T06:11:01.581Z,17.90
2019-05-20T06:13:33.943Z,18.10
2019-05-20T06:16:06.448Z,18.20
2019-05-20T06:18:40.033Z,18.30
2019-05-20T06:21:12.360Z,18.50
2019-05-20T06:23:44.620Z,18.60
2019-05-20T06:26:16.853Z,18.80
2019-05-20T06:28:49.227Z,18.90
2019-05-20T06:31:23.657Z,19.10
2019-05-20T06:33:56.212Z,19.10
2019-05-20T06:36:28.727Z,19.00
2019-05-20T06:39:13.837Z,18.90
2019-05-20T06:41:46.243Z,18.90
2019-05-20T06:44:18.655Z,18.90
2019-05-20T06:46:51.038Z,19.00
2019-05-20T06:49:23.270Z,19.10
2019-05-20T06:51:55.997Z,19.30
2019-05-20T06:54:28.192Z,19.60
2019-05-20T06:57:00.469Z,19.80
2019-05-20T06:59:32.694Z,19.90
2019-05-20T07:02:06.124Z,20.10
2019-05-20T07:04:38.517Z,20.10
2019-05-20T07:07:20.537Z,20.10
2019-05-20T07:09:45.326Z,20.20
2019-05-20T07:12:17.685Z,20.20
2019-05-20T07:14:50.142Z,20.00
2019-05-20T07:17:22.505Z,19.80
2019-05-20T07:19:54.797Z,19.70
2019-05-20T07:22:26.928Z,19.90
2019-05-20T07:24:59.155Z,20.10
2019-05-20T07:27:31.471Z,20.40
2019-05-20T07:30:03.817Z,20.70
2019-05-20T07:32:36.062Z,20.90
2019-05-20T07:35:08.902Z,20.90
2019-05-20T07:37:41.118Z,20.90
2019-05-20T07:40:14.279Z,20.70
2019-05-20T07:42:46.472Z,20.70
2019-05-20T07:45:18.712Z,20.80
2019-05-20T07:47:51.061Z,20.90
2019-05-20T07:50:23.594Z,21.00
2019-05-20T07:52:56.305Z,21.10
2019-05-20T07:55:32.565Z,20.90
2019-05-20T07:58:09.209Z,21.10
2019-05-20T08:00:41.643Z,21.30
2019-05-20T08:03:13.964Z,21.30
2019-05-20T08:05:46.159Z,21.40
2019-05-20T08:08:18.592Z,21.40
2019-05-20T08:10:51.094Z,21.40
2019-05-20T08:13:23.425Z,21.60
2019-05-20T08:15:55.721Z,21.60
2019-05-20T08:18:28.293Z,21.80
2019-05-20T08:21:00.575Z,22.00
2019-05-20T08:23:32.832Z,22.20
2019-05-20T08:26:05.265Z,22.50
2019-05-20T08:28:37.801Z,22.60
2019-05-20T08:31:10.143Z,22.60
2019-05-20T08:33:42.207Z,22.50
2019-05-20T08:36:14.531Z,22.50
2019-05-20T08:38:46.706Z,22.60
2019-05-20T08:41:18.900Z,22.80
2019-05-20T08:43:51.076Z,22.90
2019-05-20T08:46:23.588Z,23.20
2019-05-20T08:48:56.015Z,23.30
2019-05-20T08:51:28.418Z,23.40
2019-05-20T08:54:00.573Z,23.40
2019-05-20T08:56:33.009Z,23.50
2019-05-20T08:59:05.063Z,23.40
2019-05-20T09:01:37.248Z,23.50
2019-05-20T09:04:09.498Z,23.30
2019-05-20T09:06:41.595Z,23.20
2019-05-20T09:09:13.802Z,23.10
2019-05-20T09:11:47.775Z,23.10
2019-05-20T09:14:19.695Z,23.10
2019-05-20T09:16:51.885Z,23.20
2019-05-20T09:19:24.138Z,23.30
2019-05-20T09:21:56.163Z,23.40
2019-05-20T09:24:28.443Z,23.40
2019-05-20T09:27:00.685Z,23.40
2019-05-20T09:29:33.205Z,23.40
2019-05-20T09:32:06.008Z,23.30
2019-05-20T09:34:38.690Z,23.20
2019-05-20T09:37:11.028Z,23.10
2019-05-20T09:39:43.087Z,23.00
2019-05-20T09:42:15.131Z,22.90
2019-05-20T09:44:47.197Z,22.80
2019-05-20T09:47:19.590Z,22.70
2019-05-20T09:49:51.734Z,22.60
2019-05-20T09:52:23.991Z,22.50
2019-05-20T09:54:56.020Z,22.50
2019-05-20T09:57:30.234Z,22.50
2019-05-20T10:00:02.556Z,22.50
2019-05-20T10:02:38.264Z,22.40
2019-05-20T10:05:09.119Z,22.40
2019-05-20T10:07:41.438Z,22.40
2019-05-20T10:10:14.024Z,22.40
2019-05-20T10:12:47.206Z,22.40
2019-05-20T10:15:19.907Z,22.50
2019-05-20T10:17:52.387Z,22.40
2019-05-20T10:20:24.665Z,22.10
2019-05-20T10:22:57.154Z,21.80
2019-05-20T10:25:29.762Z,21.70
2019-05-20T10:28:01.975Z,21.60
2019-05-20T10:30:34.560Z,21.40
2019-05-20T10:33:09.105Z,21.20
2019-05-20T10:35:40.788Z,21.00
2019-05-20T10:38:13.261Z,20.80
2019-05-20T10:40:45.940Z,20.60
2019-05-20T10:43:18.348Z,20.50
2019-05-20T10:45:50.710Z,20.20
2019-05-20T10:48:23.013Z,20.00
2019-05-20T10:50:55.241Z,19.70
2019-05-20T10:53:28.542Z,19.60
2019-05-20T10:56:01.687Z,19.50
2019-05-20T10:58:34.437Z,19.30
2019-05-20T11:01:07.110Z,19.30
2019-05-20T11:03:39.555Z,19.40
2019-05-20T11:06:12.259Z,19.50
2019-05-20T11:08:44.961Z,19.60
2019-05-20T11:11:17.269Z,19.60
2019-05-20T11:13:49.831Z,19.50
2019-05-20T11:16:22.314Z,19.40
2019-05-20T11:18:54.834Z,19.20
2019-05-20T11:21:27.370Z,19.20
2019-05-20T11:23:59.792Z,19.00
2019-05-20T11:26:32.004Z,18.90
2019-05-20T11:29:04.667Z,18.80
2019-05-20T11:31:36.865Z,18.60
2019-05-20T11:34:09.341Z,18.40
2019-05-20T11:36:44.138Z,18.20
2019-05-20T11:39:31.234Z,18.00
2019-05-20T11:41:54.579Z,18.00
2019-05-20T11:44:24.495Z,18.00
2019-05-20T11:46:56.926Z,18.10
2019-05-20T11:49:29.553Z,18.20
2019-05-20T11:52:02.229Z,18.20
2019-05-20T11:54:34.808Z,18.30
2019-05-20T11:57:07.447Z,18.30
2019-05-20T11:59:40.207Z,18.30
2019-05-20T12:02:13.036Z,18.30
2019-05-20T12:04:45.253Z,18.30
2019-05-20T12:07:17.814Z,18.30
2019-05-20T12:09:50.524Z,18.30
2019-05-20T12:12:23.081Z,18.30
2019-05-20T12:14:55.484Z,18.30
2019-05-20T12:17:27.900Z,18.30
2019-05-20T12:20:00.232Z,18.30
2019-05-20T12:22:32.386Z,18.20
2019-05-20T12:25:04.921Z,18.10
2019-05-20T12:27:37.281Z,18.10
2019-05-20T12:30:10.277Z,18.10
2019-05-20T12:32:42.667Z,18.00
2019-05-20T12:35:15.268Z,17.60
2019-05-20T12:37:47.410Z,16.90
2019-05-20T12:40:20.107Z,16.40
2019-05-20T12:42:52.614Z,16.00
2019-05-20T12:45:25.075Z,15.70
2019-05-20T12:47:57.463Z,15.40
2019-05-20T12:50:30.196Z,15.30
2019-05-20T12:53:02.601Z,15.20
2019-05-20T12:55:35.190Z,15.10
2019-05-20T12:58:07.919Z,15.00
2019-05-20T13:00:40.291Z,15.00
2019-05-20T13:03:13.058Z,15.00
2019-05-20T13:05:45.448Z,15.10
2019-05-20T13:08:17.537Z,15.10
2019-05-20T13:10:49.776Z,15.30
2019-05-20T13:13:21.907Z,15.40
2019-05-20T13:15:54.136Z,15.60
2019-05-20T13:18:26.351Z,15.70
2019-05-20T13:20:58.677Z,15.90
2019-05-20T13:23:31.665Z,16.10
2019-05-20T13:26:05.818Z,16.30
2019-05-20T13:28:38.187Z,16.40
2019-05-20T13:31:10.591Z,16.50
2019-05-20T13:33:42.913Z,16.50
2019-05-20T13:36:15.486Z,16.60
2019-05-20T13:38:47.745Z,16.70
2019-05-20T13:41:20.111Z,16.80
2019-05-20T13:43:52.503Z,16.90
2019-05-20T13:46:24.752Z,17.00
2019-05-20T13:48:57.139Z,17.00
2019-05-20T13:51:29.394Z,17.00
2019-05-20T13:54:01.973Z,17.10
2019-05-20T13:56:34.376Z,17.20
2019-05-20T13:59:06.631Z,17.40
2019-05-20T14:01:39.162Z,17.50
2019-05-20T14:04:11.281Z,17.60
2019-05-20T14:06:43.552Z,17.60
2019-05-20T14:09:15.895Z,17.60
2019-05-20T14:11:48.304Z,17.60
2019-05-20T14:14:20.623Z,17.50
2019-05-20T14:16:53.160Z,17.50
2019-05-20T14:19:25.511Z,17.50
2019-05-20T14:21:57.818Z,17.50
2019-05-20T14:24:29.897Z,17.50
2019-05-20T14:27:02.614Z,17.60
2019-05-20T14:29:45.466Z,17.60
2019-05-20T14:32:19.585Z,17.50
2019-05-20T14:34:51.787Z,17.50
2019-05-20T14:37:24.165Z,17.40
2019-05-20T14:39:58.612Z,17.40
2019-05-20T14:42:31.018Z,17.30
2019-05-20T14:45:03.201Z,17.20
2019-05-20T14:47:35.756Z,17.20
2019-05-20T14:50:08.939Z,17.10
2019-05-20T14:52:41.467Z,17.00
2019-05-20T14:55:15.628Z,16.90
2019-05-20T14:57:48.070Z,16.80
2019-05-20T15:00:20.953Z,16.80
2019-05-20T15:02:53.595Z,16.60
2019-05-20T15:05:26.227Z,16.60
2019-05-20T15:07:58.510Z,16.50
2019-05-20T15:10:33.997Z,16.60
2019-05-20T15:13:06.829Z,16.60
2019-05-20T15:15:39.511Z,16.70
2019-05-20T15:18:12.129Z,16.80
2019-05-20T15:20:44.385Z,16.90
2019-05-20T15:23:17.971Z,16.80
2019-05-20T15:25:50.216Z,16.80
2019-05-20T15:28:22.729Z,16.80
2019-05-20T15:30:55.378Z,16.80
2019-05-20T15:33:27.956Z,16.90
2019-05-20T15:36:00.170Z,16.90
2019-05-20T15:38:32.399Z,16.90
2019-05-20T15:41:04.799Z,16.80
2019-05-20T15:43:38.971Z,16.80
2019-05-20T15:46:11.282Z,16.80
2019-05-20T15:48:43.959Z,16.70
2019-05-20T15:51:16.455Z,16.60
2019-05-20T15:53:49.010Z,16.50
2019-05-20T15:56:24.456Z,16.40
2019-05-20T15:58:57.163Z,16.40
2019-05-20T16:01:30.109Z,16.40
2019-05-20T16:04:02.479Z,16.40
2019-05-20T16:06:35.185Z,16.50
2019-05-20T16:09:08.508Z,16.60
2019-05-20T16:11:41.260Z,16.70
2019-05-20T16:14:14.028Z,16.60
2019-05-20T16:16:46.398Z,16.60
2019-05-20T16:19:18.983Z,16.60
2019-05-20T16:21:51.318Z,16.60
2019-05-20T16:24:23.708Z,16.50
2019-05-20T16:26:56.188Z,16.50
2019-05-20T16:29:28.753Z,16.30
2019-05-20T16:32:05.580Z,16.20
2019-05-20T16:34:38.099Z,16.10
2019-05-20T16:37:13.733Z,16.10
2019-05-20T16:39:46.286Z,16.10
2019-05-20T16:42:19.027Z,16.00
2019-05-20T16:44:51.764Z,16.00
2019-05-20T16:47:24.210Z,16.00
2019-05-20T16:49:57.200Z,16.00
2019-05-20T16:52:30.282Z,16.00
2019-05-20T16:55:02.788Z,16.00
2019-05-20T16:57:35.680Z,16.10
2019-05-20T17:00:29.001Z,16.00
2019-05-20T17:02:43.307Z,16.00
2019-05-20T17:05:16.037Z,16.00
2019-05-20T17:07:48.645Z,15.90
2019-05-20T17:10:21.195Z,15.90
2019-05-20T17:12:53.970Z,15.90
2019-05-20T17:15:26.751Z,15.80
2019-05-20T17:17:59.606Z,15.80
2019-05-20T17:20:32.278Z,15.80
2019-05-20T17:23:04.736Z,15.80
2019-05-20T17:25:37.569Z,15.70
2019-05-20T17:28:10.315Z,15.70
2019-05-20T17:30:45.713Z,15.60
2019-05-20T17:33:17.783Z,15.60
2019-05-20T17:35:50.675Z,15.50
2019-05-20T17:38:23.346Z,15.50
2019-05-20T17:40:56.112Z,15.40
2019-05-20T17:43:28.600Z,15.30
2019-05-20T17:46:01.436Z,15.20
2019-05-20T17:48:34.421Z,15.10
2019-05-20T17:51:08.924Z,15.10
2019-05-20T17:53:42.017Z,15.00
2019-05-20T17:56:16.612Z,14.90
2019-05-20T17:58:49.334Z,14.80
2019-05-20T18:01:24.532Z,14.70
2019-05-20T18:03:57.301Z,14.70
2019-05-20T18:06:30.342Z,14.60
2019-05-20T18:09:04.537Z,14.60
2019-05-20T18:11:37.506Z,14.50
2019-05-20T18:14:10.180Z,14.40
2019-05-20T18:16:43.637Z,14.40
2019-05-20T18:19:16.361Z,14.30
2019-05-20T18:21:49.172Z,14.30
2019-05-20T18:24:21.934Z,14.30
2019-05-20T18:26:55.868Z,14.20
2019-05-20T18:29:28.435Z,14.10
2019-05-20T18:32:00.962Z,14.00
2019-05-20T18:34:33.695Z,13.90
2019-05-20T18:37:06.375Z,13.90
2019-05-20T18:39:40.057Z,13.80
2019-05-20T18:42:13.116Z,13.80
2019-05-20T18:44:46.053Z,13.70
2019-05-20T18:47:19.232Z,13.70
2019-05-20T18:49:52.146Z,13.70
2019-05-20T18:52:25.552Z,13.60
2019-05-20T18:55:01.373Z,13.60
2019-05-20T18:57:34.519Z,13.60
2019-05-20T19:00:10.789Z,13.50
2019-05-20T19:02:44.005Z,13.60
2019-05-20T19:05:17.717Z,13.50
2019-05-20T19:07:54.092Z,13.50
2019-05-20T19:10:27.567Z,13.40
2019-05-20T19:13:00.528Z,13.50
2019-05-20T19:15:35.133Z,13.40
2019-05-20T19:18:09.761Z,13.30
2019-05-20T19:20:42.498Z,13.30
2019-05-20T19:23:18.086Z,13.30
2019-05-20T19:25:50.920Z,13.30
2019-05-20T19:28:23.628Z,13.20
2019-05-20T19:30:56.376Z,13.10
2019-05-20T19:33:29.655Z,13.00
2019-05-20T19:36:02.768Z,13.00
2019-05-20T19:38:38.309Z,13.00
2019-05-20T19:41:12.740Z,12.90
2019-05-20T19:43:45.711Z,12.90
2019-05-20T19:46:20.217Z,12.80
2019-05-20T19:48:54.091Z,12.70
2019-05-20T19:51:26.713Z,12.60
2019-05-20T19:53:59.837Z,12.50
2019-05-20T19:56:32.133Z,12.50
2019-05-20T19:59:09.657Z,12.50
2019-05-20T20:01:42.251Z,12.50
2019-05-20T20:04:15.021Z,12.40
2019-05-20T20:06:50.237Z,12.40
2019-05-20T20:09:24.500Z,12.30
2019-05-20T20:11:59.091Z,12.30
2019-05-20T20:14:31.383Z,12.30
2019-05-20T20:17:03.835Z,12.30
2019-05-20T20:19:36.538Z,12.30
2019-05-20T20:22:09.052Z,12.30
2019-05-20T20:24:41.489Z,12.30
2019-05-20T20:27:13.793Z,12.30
2019-05-20T20:29:46.102Z,12.40
2019-05-20T20:32:34.744Z,12.40
2019-05-20T20:34:52.846Z,12.40
2019-05-20T20:37:25.408Z,12.30
2019-05-20T20:39:59.703Z,12.30
2019-05-20T20:42:32.200Z,12.30
2019-05-20T20:45:04.911Z,12.30
2019-05-20T20:47:41.698Z,12.30
2019-05-20T20:50:12.045Z,12.30
2019-05-20T20:52:44.520Z,12.30
2019-05-20T20:55:16.837Z,12.20
2019-05-20T20:57:49.496Z,12.20
2019-05-20T21:00:22.538Z,12.20
2019-05-20T21:02:55.007Z,12.20
2019-05-20T21:05:27.436Z,12.20
2019-05-20T21:08:00.158Z,12.10
2019-05-20T21:10:32.864Z,12.10
2019-05-20T21:13:05.439Z,12.00
2019-05-20T21:15:37.738Z,12.00
2019-05-20T21:18:09.957Z,12.00
2019-05-20T21:20:42.368Z,12.00
2019-05-20T21:23:14.580Z,12.00
2019-05-20T21:25:46.903Z,12.00
2019-05-20T21:28:19.349Z,12.10
2019-05-20T21:30:51.875Z,12.10
2019-05-20T21:33:24.263Z,12.10
2019-05-20T21:35:56.661Z,12.00
2019-05-20T21:38:29.151Z,12.00
2019-05-20T21:41:01.383Z,12.00
2019-05-20T21:43:33.630Z,12.00
2019-05-20T21:46:05.869Z,12.00
2019-05-20T21:48:38.278Z,11.90
2019-05-20T21:51:10.758Z,11.80
2019-05-20T21:53:43.028Z,11.80
2019-05-20T21:56:19.736Z,11.80
2019-05-20T21:58:53.795Z,11.70
2019-05-20T22:01:26.655Z,11.60
2019-05-20T22:03:59.205Z,11.60
2019-05-20T22:06:31.501Z,11.50
2019-05-20T22:09:04.356Z,11.40
2019-05-20T22:11:36.656Z,11.30
2019-05-20T22:14:08.992Z,11.20
2019-05-20T22:16:41.026Z,11.00
2019-05-20T22:19:13.225Z,10.90
2019-05-20T22:22:04.106Z,10.80
2019-05-20T22:24:36.277Z,10.80
2019-05-20T22:27:08.346Z,10.80
2019-05-20T22:29:40.597Z,10.70
2019-05-20T22:32:12.830Z,10.70
2019-05-20T22:34:53.264Z,10.70
2019-05-20T22:37:20.661Z,10.70
2019-05-20T22:39:54.422Z,10.70
2019-05-20T22:42:26.756Z,10.70
2019-05-20T22:45:00.525Z,10.80
2019-05-20T22:47:32.726Z,10.90
2019-05-20T22:50:05.256Z,10.80
2019-05-20T22:52:37.405Z,10.80
2019-05-20T22:55:09.650Z,10.80
2019-05-20T22:57:41.806Z,10.90
2019-05-20T23:00:14.335Z,10.90
2019-05-20T23:02:46.510Z,10.90
2019-05-20T23:05:18.764Z,10.90
2019-05-20T23:07:50.726Z,10.90
2019-05-20T23:10:22.793Z,11.00
2019-05-20T23:12:54.721Z,11.00
2019-05-20T23:15:26.786Z,11.10
2019-05-20T23:17:58.701Z,11.10
2019-05-20T23:20:30.817Z,11.10
2019-05-20T23:23:03.036Z,11.10
2019-05-20T23:25:35.344Z,11.10
2019-05-20T23:28:07.580Z,11.00
2019-05-20T23:30:39.924Z,11.00
2019-05-20T23:33:13.891Z,11.00
2019-05-20T23:35:50.424Z,11.00
2019-05-20T23:38:24.971Z,11.00
2019-05-20T23:40:57.374Z,10.90
2019-05-20T23:43:29.483Z,10.90
2019-05-20T23:46:01.738Z,10.90
2019-05-20T23:48:33.758Z,11.00
2019-05-20T23:51:05.974Z,11.00
2019-05-20T23:53:38.196Z,11.10
2019-05-20T23:56:10.314Z,11.20
2019-05-20T23:58:42.371Z,11.20
